Flight Track Log - Related Links

Times and Time Zones

All times are in EDT time to prevent confusion due to time zone crossing. See the EJA930 flight status page for this flight to view local times or setup timezone preferences in your user account.

Time Position Orientation Groundspeed Altitude Reporting Facility
EDT Latitude Longitude Course Direction KTS MPH feet Rate Location/Type
Sun 02:51:37 PM 34.0000 -118.4667 267° West 176 203 1,500  Level Southern California TRACON
Sun 02:52:54 PM 33.9958 -118.5631 267° West 225 259 6,200 2,225 Climbing Los Angeles Center
Sun 02:54:08 PM 34.0086 -118.6556 279° West 284 327 7,100 1,270 Climbing Los Angeles Center
Sun 02:55:11 PM 34.0936 -118.6681 353° North 285 328 9,100 1,344 Climbing Los Angeles Center
Sun 02:56:13 PM 34.1728 -118.6281 23° Northeast 303 349 9,900 1,500 Climbing Los Angeles Center
Sun 02:57:15 PM 34.2578 -118.6447 351° North 316 364 12,200 1,984 Climbing Los Angeles Center
Sun 02:58:17 PM 34.3519 -118.6728 346° North 343 395 14,000 1,742 Climbing Los Angeles Center
Sun 02:59:19 PM 34.4528 -118.7028 346° North 371 427 15,800 1,742 Climbing Los Angeles Center
Sun 03:00:21 PM 34.5556 -118.7361 345° North 382 440 17,600 1,887 Climbing Los Angeles Center
Sun 03:01:23 PM 34.6750 -118.7986 337° Northwest 391 450 19,700 1,887 Climbing Los Angeles Center
Sun 03:02:25 PM 34.7764 -118.8519 337° Northwest 395 455 21,500 1,742 Climbing Los Angeles Center
Sun 03:03:27 PM 34.8708 -118.9256 327° Northwest 401 461 23,300 1,200 Climbing Los Angeles Center
Sun 03:04:30 PM 34.9736 -119.0014 329° Northwest 418 481 24,000 336 Climbing Los Angeles Center
Sun 03:05:32 PM 35.0819 -119.0819 329° Northwest 454 522 24,000  Level Los Angeles Center
Sun 03:06:34 PM 35.1853 -119.1750 324° Northwest 487 560 24,000  Level Los Angeles Center
Sun 03:07:36 PM 35.2800 -119.3217 308° West 462 532 24,000  Level Los Angeles Center
Sun 03:08:38 PM 35.3558 -119.4439 307° West 455 524 24,000  Level Los Angeles Center
Sun 03:09:40 PM 35.4325 -119.5664 308° West 455 524 24,000  Level Los Angeles Center
Sun 03:10:42 PM 35.5075 -119.6861 308° West 445 512 24,000  Level Los Angeles Center
Sun 03:11:44 PM 35.5789 -119.8025 307° West 433 498 24,000  Level Los Angeles Center
Sun 03:12:46 PM 35.6639 -119.9411 307° West 428 493 24,000  Level Los Angeles Center
Sun 03:13:49 PM 35.7358 -120.0572 307° West 431 496 24,000 -48 Level Los Angeles Center
Sun 03:14:51 PM 35.8053 -120.1733 306° West 427 491 23,900 -629 Descending Los Angeles Center
Sun 03:15:53 PM 35.8747 -120.2831 308° West 419 482 22,700 -1,161 Descending Los Angeles Center
Sun 03:16:55 PM 35.9417 -120.3942 307° West 412 474 21,500 -1,500 Descending Los Angeles Center
Sun 03:17:57 PM 36.0219 -120.5264 307° West 407 468 19,600 -1,694 Descending Los Angeles Center
Sun 03:18:59 PM 36.0883 -120.6375 306° West 405 466 18,000 -1,614 Descending Los Angeles Center
Sun 03:20:22 PM 36.1817 -120.7908 307° West 405 466 15,700 -1,625 Descending Oakland Center
Sun 03:21:23 PM 36.2475 -120.9028 306° West 403 464 14,100 -1,561 Descending Oakland Center
Sun 03:22:25 PM 36.3136 -121.0139 306° West 403 464 12,500 -1,548 Descending Oakland Center
Sun 03:23:27 PM 36.3703 -121.1089 307° West 351 404 10,900 -1,415 Descending Oakland Center
Sun 03:24:28 PM 36.4075 -121.2008 297° West 311 358 9,600 -1,415 Descending Oakland Center
Sun 03:25:30 PM 36.4267 -121.2911 285° West 289 333 8,000 -1,463 Descending Oakland Center
Sun 03:26:31 PM 36.4331 -121.3900 275° West 259 298 6,600 -1,317 Descending Oakland Center
Sun 03:27:33 PM 36.4608 -121.4517 299° West 229 264 5,300 -1,355 Descending Oakland Center
Sun 03:28:35 PM 36.5008 -121.4922 321° Northwest 202 232 3,800 -1,317 Descending Oakland Center
Sun 03:29:36 PM 36.5458 -121.5189 335° Northwest 187 215 2,600 -927 Descending Oakland Center
Sun 03:30:38 PM 36.5800 -121.5428 331° Northwest 157 181 1,900 -532 Descending Oakland Center
Sun 03:31:40 PM 36.6133 -121.5639 333° Northwest 148 170 1,500 -585 Descending Oakland Center
Sun 03:32:41 PM 36.6497 -121.5589 North 133 153 700 -787 Descending Oakland Center
Sun 03:34:00 PM 36.6500 -121.6000 North  Level FlightAware Approximate
Sun 03:41:00 PM 36.6628 -121.6064 North  Level Estimated

Login

Don't have an account? Register now (free) for customized features, flight alerts, and more!